createdAt,value
2018-10-16T00:02:19.452Z,101542.36
2018-10-16T00:04:48.554Z,101547.81
2018-10-16T00:07:17.600Z,101546.38
2018-10-16T00:09:46.638Z,101546.83
2018-10-16T00:12:15.735Z,101549.67
2018-10-16T00:14:44.772Z,101553.84
2018-10-16T00:17:13.861Z,101557.33
2018-10-16T00:19:42.947Z,101557.44
2018-10-16T00:22:12.013Z,101562.67
2018-10-16T00:24:41.068Z,101562.33
2018-10-16T00:27:10.133Z,101566.50
2018-10-16T00:29:39.193Z,101562.25
2018-10-16T00:32:08.241Z,101567.14
2018-10-16T00:34:37.320Z,101561.75
2018-10-16T00:37:06.382Z,101561.19
2018-10-16T00:39:35.418Z,101568.27
2018-10-16T00:42:04.489Z,101569.11
2018-10-16T00:44:33.580Z,101570.84
2018-10-16T00:47:02.641Z,101567.44
2018-10-16T00:49:31.674Z,101570.58
2018-10-16T00:52:00.737Z,101573.72
2018-10-16T00:54:29.790Z,101574.55
2018-10-16T00:56:58.846Z,101574.29
2018-10-16T00:59:27.907Z,101577.70
2018-10-16T01:01:56.949Z,101590.19
2018-10-16T01:04:26.034Z,101588.91
2018-10-16T01:06:55.108Z,101595.86
2018-10-16T01:09:24.207Z,101600.17
2018-10-16T01:11:53.265Z,101599.75
2018-10-16T01:14:22.345Z,101604.01
2018-10-16T01:16:51.406Z,101606.39
2018-10-16T01:19:20.424Z,101607.80
2018-10-16T01:21:49.479Z,101608.07
2018-10-16T01:24:18.545Z,101602.87
2018-10-16T01:26:47.572Z,101611.64
2018-10-16T01:29:16.641Z,101614.78
2018-10-16T01:31:45.705Z,101615.61
2018-10-16T01:34:14.762Z,101610.86
2018-10-16T01:36:43.816Z,101610.13
2018-10-16T01:39:12.879Z,101602.86
2018-10-16T01:41:41.947Z,101607.84
2018-10-16T01:44:10.988Z,101607.19
2018-10-16T01:46:40.022Z,101605.17
2018-10-16T01:49:09.133Z,101602.98
2018-10-16T01:51:38.193Z,101606.91
2018-10-16T01:54:07.427Z,101602.60
2018-10-16T01:56:36.476Z,101600.13
2018-10-16T01:59:05.630Z,101600.48
2018-10-16T02:01:34.737Z,101599.30
2018-10-16T02:04:03.821Z,101600.59
2018-10-16T02:06:32.922Z,101597.08
2018-10-16T02:09:01.975Z,101598.12
2018-10-16T02:11:31.054Z,101599.48
2018-10-16T02:14:00.106Z,101599.20
2018-10-16T02:16:29.233Z,101605.19
2018-10-16T02:18:58.288Z,101613.00
2018-10-16T02:21:27.351Z,101618.16
2018-10-16T02:23:56.559Z,101617.60
2018-10-16T02:26:25.639Z,101622.57
2018-10-16T02:28:54.708Z,101619.27
2018-10-16T02:31:24.032Z,101614.41
2018-10-16T02:33:53.055Z,101626.70
2018-10-16T02:36:22.164Z,101622.84
2018-10-16T02:38:51.246Z,101622.22
2018-10-16T02:41:20.317Z,101619.92
2018-10-16T02:43:49.419Z,101617.63
2018-10-16T02:46:18.462Z,101617.80
2018-10-16T02:48:47.491Z,101616.34
2018-10-16T02:51:16.562Z,101612.55
2018-10-16T02:53:45.637Z,101613.04
2018-10-16T02:56:14.687Z,101614.39
2018-10-16T02:58:43.726Z,101613.66
2018-10-16T03:01:12.780Z,101619.73
2018-10-16T03:03:41.830Z,101618.52
2018-10-16T03:06:10.889Z,101633.66
2018-10-16T03:08:39.930Z,101628.17
2018-10-16T03:11:08.991Z,101628.34
2018-10-16T03:13:38.077Z,101631.36
2018-10-16T03:16:07.150Z,101629.45
2018-10-16T03:18:36.245Z,101632.47
2018-10-16T03:21:05.726Z,101630.16
2018-10-16T03:23:34.742Z,101638.88
2018-10-16T03:26:03.827Z,101632.55
2018-10-16T03:28:32.892Z,101631.37
2018-10-16T03:31:01.946Z,101629.25
2018-10-16T03:33:30.983Z,101634.10
2018-10-16T03:36:00.051Z,101632.44
2018-10-16T03:38:29.126Z,101633.92
2018-10-16T03:40:58.240Z,101634.92
2018-10-16T03:43:27.297Z,101643.53
2018-10-16T03:45:56.361Z,101642.89
2018-10-16T03:48:25.422Z,101651.33
2018-10-16T03:50:54.467Z,101651.88
2018-10-16T03:53:23.562Z,101655.73
2018-10-16T03:55:52.593Z,101656.70
2018-10-16T03:58:21.831Z,101656.25
2018-10-16T04:00:50.911Z,101657.16
2018-10-16T04:03:19.971Z,101655.97
2018-10-16T04:05:49.052Z,101659.81
2018-10-16T04:08:18.138Z,101659.81
2018-10-16T04:10:47.191Z,101661.94
2018-10-16T04:13:16.262Z,101656.52
2018-10-16T04:15:45.347Z,101655.33
2018-10-16T04:18:14.422Z,101658.15
2018-10-16T04:20:43.470Z,101655.97
2018-10-16T04:23:12.566Z,101656.06
2018-10-16T04:25:41.614Z,101656.52
2018-10-16T04:28:10.674Z,101659.53
2018-10-16T04:30:39.835Z,101670.73
2018-10-16T04:33:08.916Z,101672.38
2018-10-16T04:35:37.966Z,101674.49
2018-10-16T04:38:07.046Z,101675.23
2018-10-16T04:40:36.123Z,101675.33
2018-10-16T04:43:05.184Z,101673.56
2018-10-16T04:45:34.219Z,101663.77
2018-10-16T04:48:03.298Z,101665.86
2018-10-16T04:50:32.423Z,101670.48
2018-10-16T04:53:01.436Z,101671.16
2018-10-16T04:55:30.490Z,101679.75
2018-10-16T04:57:59.585Z,101682.39
2018-10-16T05:00:29.101Z,101680.23
2018-10-16T05:02:59.917Z,101690.03
2018-10-16T05:05:29.054Z,101690.94
2018-10-16T05:07:58.508Z,101693.11
2018-10-16T05:10:28.179Z,101691.37
2018-10-16T05:12:57.329Z,101688.45
2018-10-16T05:15:34.291Z,101691.98
2018-10-16T05:18:03.443Z,101691.25
2018-10-16T05:20:33.411Z,101689.64
2018-10-16T05:23:02.455Z,101694.40
2018-10-16T05:25:31.647Z,101693.66
2018-10-16T05:28:00.701Z,101696.23
2018-10-16T05:30:29.780Z,101705.22
2018-10-16T05:32:59.092Z,101709.27
2018-10-16T05:35:28.152Z,101706.77
2018-10-16T05:37:57.225Z,101705.28
2018-10-16T05:40:26.341Z,101708.84
2018-10-16T05:42:55.392Z,101707.11
2018-10-16T05:45:25.638Z,101715.81
2018-10-16T05:47:54.667Z,101705.25
2018-10-16T05:50:23.750Z,101708.11
2018-10-16T05:52:52.780Z,101706.09
2018-10-16T05:55:21.842Z,101704.26
2018-10-16T05:57:50.872Z,101706.44
2018-10-16T06:00:33.113Z,101701.50
2018-10-16T06:03:02.139Z,101703.88
2018-10-16T06:05:31.266Z,101706.44
2018-10-16T06:08:00.255Z,101712.51
2018-10-16T06:10:29.294Z,101715.98
2018-10-16T06:12:59.294Z,101718.92
2018-10-16T06:15:28.368Z,101720.12
2018-10-16T06:17:57.401Z,101720.12
2018-10-16T06:20:26.434Z,101720.86
2018-10-16T06:22:55.524Z,101720.05
2018-10-16T06:25:24.625Z,101725.45
2018-10-16T06:27:53.733Z,101732.70
2018-10-16T06:30:22.908Z,101729.59
2018-10-16T06:32:51.954Z,101727.76
2018-10-16T06:35:21.003Z,101735.21
2018-10-16T06:37:50.108Z,101733.41
2018-10-16T06:40:19.208Z,101735.69
2018-10-16T06:42:48.301Z,101737.55
2018-10-16T06:45:17.395Z,101732.42
2018-10-16T06:47:46.664Z,101729.30
2018-10-16T06:50:15.583Z,101734.28
2018-10-16T06:52:44.676Z,101733.45
2018-10-16T06:55:13.793Z,101731.45
2018-10-16T06:57:42.852Z,101735.76
2018-10-16T07:00:11.949Z,101743.88
2018-10-16T07:02:41.053Z,101740.77
2018-10-16T07:05:10.150Z,101738.74
2018-10-16T07:07:39.258Z,101739.83
2018-10-16T07:10:09.198Z,101734.91
2018-10-16T07:12:38.439Z,101740.05
2018-10-16T07:15:08.036Z,101737.77
2018-10-16T07:17:37.097Z,101736.00
2018-10-16T07:20:07.380Z,101734.39
2018-10-16T07:22:36.493Z,101730.27
2018-10-16T07:25:06.677Z,101733.76
2018-10-16T07:27:35.776Z,101735.52
2018-10-16T07:30:05.636Z,101743.34
2018-10-16T07:32:34.694Z,101743.43
2018-10-16T07:35:03.893Z,101743.55
2018-10-16T07:37:33.005Z,101750.61
2018-10-16T07:40:02.054Z,101749.33
2018-10-16T07:42:31.184Z,101745.83
2018-10-16T07:45:00.283Z,101752.27
2018-10-16T07:47:29.352Z,101753.28
2018-10-16T07:49:58.426Z,101748.14
2018-10-16T07:52:27.484Z,101750.72
2018-10-16T07:54:56.570Z,101753.95
2018-10-16T07:57:25.749Z,101753.95
2018-10-16T07:59:54.763Z,101756.63
2018-10-16T08:02:23.860Z,101757.08
2018-10-16T08:04:52.958Z,101759.20
2018-10-16T08:07:22.044Z,101767.66
2018-10-16T08:09:51.133Z,101763.06
2018-10-16T08:12:20.707Z,101764.52
2018-10-16T08:14:49.798Z,101770.95
2018-10-16T08:17:19.038Z,101767.70
2018-10-16T08:19:48.003Z,101770.66
2018-10-16T08:22:17.111Z,101766.97
2018-10-16T08:24:46.316Z,101762.53
2018-10-16T08:27:15.443Z,101758.65
2018-10-16T08:29:44.512Z,101767.00
2018-10-16T08:32:13.620Z,101762.52
2018-10-16T08:34:42.715Z,101761.55
2018-10-16T08:37:12.995Z,101767.41
2018-10-16T08:39:43.671Z,101768.36
2018-10-16T08:42:40.914Z,101770.83
2018-10-16T08:45:21.804Z,101767.20
2018-10-16T08:48:02.094Z,101769.22
2018-10-16T08:50:43.933Z,101765.30
2018-10-16T08:53:13.943Z,101769.67
2018-10-16T08:55:43.033Z,101769.78
2018-10-16T08:58:12.135Z,101774.33
2018-10-16T09:00:41.252Z,101774.83
2018-10-16T09:03:10.390Z,101777.44
2018-10-16T09:05:39.487Z,101778.36
2018-10-16T09:08:08.616Z,101778.29
2018-10-16T09:10:37.737Z,101781.03
2018-10-16T09:13:06.908Z,101775.95
2018-10-16T09:15:37.045Z,101785.02
2018-10-16T09:18:06.258Z,101783.54
2018-10-16T09:20:35.386Z,101783.20
2018-10-16T09:23:04.520Z,101783.41
2018-10-16T09:25:33.637Z,101782.63
2018-10-16T09:28:02.857Z,101781.70
2018-10-16T09:30:32.037Z,101788.83
2018-10-16T09:33:01.136Z,101785.53
2018-10-16T09:35:30.248Z,101789.19
2018-10-16T09:37:59.558Z,101789.52
2018-10-16T09:40:28.721Z,101790.42
2018-10-16T09:42:57.834Z,101790.77
2018-10-16T09:45:27.068Z,101789.17
2018-10-16T09:47:56.206Z,101792.56
2018-10-16T09:50:25.316Z,101794.95
2018-10-16T09:52:54.551Z,101793.77
2018-10-16T09:55:23.695Z,101792.17
2018-10-16T09:57:52.824Z,101796.90
2018-10-16T10:00:27.130Z,101794.89
2018-10-16T10:02:56.551Z,101793.41
2018-10-16T10:05:26.586Z,101793.98
2018-10-16T10:07:55.799Z,101796.34
2018-10-16T10:10:24.960Z,101789.53
2018-10-16T10:12:54.084Z,101793.80
2018-10-16T10:15:23.274Z,101789.97
2018-10-16T10:17:52.428Z,101781.73
2018-10-16T10:20:21.538Z,101788.34
2018-10-16T10:22:50.733Z,101784.88
2018-10-16T10:25:20.006Z,101784.88
2018-10-16T10:27:49.113Z,101788.72
2018-10-16T10:30:18.382Z,101792.87
2018-10-16T10:32:47.569Z,101787.02
2018-10-16T10:35:16.845Z,101784.53
2018-10-16T10:37:45.966Z,101782.79
2018-10-16T10:40:15.286Z,101784.38
2018-10-16T10:42:44.477Z,101784.80
2018-10-16T10:45:13.715Z,101786.11
2018-10-16T10:47:43.911Z,101790.14
2018-10-16T10:50:14.311Z,101785.31
2018-10-16T10:52:43.445Z,101783.55
2018-10-16T10:55:12.704Z,101789.91
2018-10-16T10:57:41.903Z,101781.26
2018-10-16T11:00:13.119Z,101791.45
2018-10-16T11:02:43.692Z,101778.09
2018-10-16T11:05:13.045Z,101782.28
2018-10-16T11:07:42.315Z,101781.33
2018-10-16T11:10:14.449Z,101780.39
2018-10-16T11:12:44.836Z,101776.36
2018-10-16T11:15:14.283Z,101777.11
2018-10-16T11:17:43.387Z,101778.84
2018-10-16T11:20:13.834Z,101774.89
2018-10-16T11:22:43.144Z,101777.50
2018-10-16T11:25:12.488Z,101782.65
2018-10-16T11:27:41.942Z,101774.22
2018-10-16T11:30:13.843Z,101774.28
2018-10-16T11:32:43.269Z,101777.94
2018-10-16T11:35:14.084Z,101775.14
2018-10-16T11:37:43.392Z,101769.92
2018-10-16T11:40:12.764Z,101772.13
2018-10-16T11:42:42.811Z,101765.10
2018-10-16T11:45:12.390Z,101765.66
2018-10-16T11:47:42.314Z,101767.03
2018-10-16T11:50:12.583Z,101757.98
2018-10-16T11:52:42.023Z,101766.31
2018-10-16T11:55:11.431Z,101763.18
2018-10-16T11:57:40.918Z,101763.34
2018-10-16T12:00:13.902Z,101761.42
2018-10-16T12:02:44.087Z,101762.56
2018-10-16T12:05:13.369Z,101762.57
2018-10-16T12:07:42.671Z,101758.94
2018-10-16T12:10:12.205Z,101759.59
2018-10-16T12:12:41.454Z,101757.03
2018-10-16T12:15:10.733Z,101760.27
2018-10-16T12:18:18.964Z,101758.71
2018-10-16T12:20:52.399Z,101755.00
2018-10-16T12:23:21.591Z,101758.72
2018-10-16T12:25:52.456Z,101752.54
2018-10-16T12:28:21.633Z,101755.78
2018-10-16T12:30:51.296Z,101754.42
2018-10-16T12:33:20.509Z,101746.63
2018-10-16T12:35:49.714Z,101746.58
2018-10-16T12:38:18.912Z,101744.13
2018-10-16T12:40:48.172Z,101746.20
2018-10-16T12:43:17.538Z,101754.17
2018-10-16T12:45:46.700Z,101752.22
2018-10-16T12:48:16.224Z,101745.91
2018-10-16T12:50:45.624Z,101750.21
2018-10-16T12:53:15.032Z,101747.86
2018-10-16T12:55:44.261Z,101746.84
2018-10-16T12:58:13.870Z,101746.88
2018-10-16T13:00:43.188Z,101741.45
2018-10-16T13:03:13.030Z,101741.48
2018-10-16T13:05:42.128Z,101741.44
2018-10-16T13:08:11.402Z,101749.45
2018-10-16T13:10:40.575Z,101743.88
2018-10-16T13:13:09.911Z,101743.88
2018-10-16T13:15:39.478Z,101745.82
2018-10-16T13:18:08.771Z,101750.34
2018-10-16T13:20:38.330Z,101744.79
2018-10-16T13:23:07.670Z,101738.77
2018-10-16T13:25:37.142Z,101737.47
2018-10-16T13:28:06.529Z,101736.03
2018-10-16T13:30:35.771Z,101736.13
2018-10-16T13:33:05.651Z,101738.72
2018-10-16T13:35:35.055Z,101736.33
2018-10-16T13:38:04.352Z,101733.03
2018-10-16T13:40:33.769Z,101729.06
2018-10-16T13:43:03.507Z,101728.13
2018-10-16T13:45:33.488Z,101734.94
2018-10-16T13:48:02.730Z,101736.91
2018-10-16T13:50:32.397Z,101737.58
2018-10-16T13:53:01.994Z,101733.73
2018-10-16T13:55:31.255Z,101738.27
2018-10-16T13:58:00.631Z,101740.01
2018-10-16T14:00:29.870Z,101733.12
2018-10-16T14:02:59.129Z,101724.97
2018-10-16T14:05:28.367Z,101732.89
2018-10-16T14:07:57.728Z,101733.44
2018-10-16T14:10:26.986Z,101729.71
2018-10-16T14:12:56.478Z,101730.45
2018-10-16T14:15:26.049Z,101728.83
2018-10-16T14:17:55.655Z,101729.39
2018-10-16T14:20:25.470Z,101726.62
2018-10-16T14:22:54.809Z,101724.28
2018-10-16T14:25:24.291Z,101723.44
2018-10-16T14:27:57.528Z,101725.48
2018-10-16T14:30:26.773Z,101723.98
2018-10-16T14:32:55.971Z,101719.24
2018-10-16T14:35:25.155Z,101723.73
2018-10-16T14:37:55.559Z,101720.50
2018-10-16T14:40:24.892Z,101721.91
2018-10-16T14:42:54.131Z,101719.45
2018-10-16T14:45:23.284Z,101723.14
2018-10-16T14:47:52.379Z,101723.33
2018-10-16T14:50:21.936Z,101728.10
2018-10-16T14:52:51.160Z,101726.61
2018-10-16T14:55:20.354Z,101724.89
2018-10-16T14:57:49.620Z,101725.58
2018-10-16T15:00:18.751Z,101724.20
2018-10-16T15:02:48.188Z,101724.69
2018-10-16T15:05:18.379Z,101718.50
2018-10-16T15:08:11.092Z,101719.27
2018-10-16T15:10:40.256Z,101715.37
2018-10-16T15:13:09.413Z,101714.72
2018-10-16T15:15:38.609Z,101717.22
2018-10-16T15:18:09.277Z,101716.89
2018-10-16T15:20:39.284Z,101717.06
2018-10-16T15:23:08.442Z,101716.48
2018-10-16T15:25:37.649Z,101714.68
2018-10-16T15:28:06.883Z,101713.09
2018-10-16T15:30:36.044Z,101710.71
2018-10-16T15:33:05.318Z,101715.62
2018-10-16T15:35:34.596Z,101711.86
2018-10-16T15:38:03.807Z,101709.77
2018-10-16T15:40:33.094Z,101707.68
2018-10-16T15:43:02.266Z,101705.56
2018-10-16T15:45:31.455Z,101709.66
2018-10-16T15:48:00.779Z,101709.68
2018-10-16T15:50:29.948Z,101708.22
2018-10-16T15:52:59.274Z,101714.45
2018-10-16T15:55:29.404Z,101712.52
2018-10-16T15:57:59.102Z,101715.26
2018-10-16T16:00:28.375Z,101719.19
2018-10-16T16:02:57.565Z,101716.55
2018-10-16T16:05:26.720Z,101719.97
2018-10-16T16:07:55.975Z,101725.68
2018-10-16T16:10:25.212Z,101730.38
2018-10-16T16:12:54.416Z,101731.91
2018-10-16T16:15:23.822Z,101733.52
2018-10-16T16:17:53.121Z,101731.52
2018-10-16T16:20:24.566Z,101731.80
2018-10-16T16:22:58.283Z,101726.60
2018-10-16T16:25:27.621Z,101733.51
2018-10-16T16:27:57.210Z,101731.47
2018-10-16T16:30:29.933Z,101730.89
2018-10-16T16:32:59.307Z,101737.63
2018-10-16T16:35:28.511Z,101736.86
2018-10-16T16:37:57.881Z,101731.67
2018-10-16T16:40:27.120Z,101728.36
2018-10-16T16:42:56.697Z,101734.81
2018-10-16T16:45:25.968Z,101726.18
2018-10-16T16:47:55.181Z,101730.06
2018-10-16T16:50:24.757Z,101733.30
2018-10-16T16:52:54.286Z,101736.02
2018-10-16T16:55:23.632Z,101740.22
2018-10-16T16:57:53.240Z,101743.05
2018-10-16T17:00:24.316Z,101745.97
2018-10-16T17:02:53.693Z,101744.95
2018-10-16T17:05:23.213Z,101745.55
2018-10-16T17:07:52.608Z,101747.83
2018-10-16T17:10:21.914Z,101751.32
2018-10-16T17:12:51.349Z,101753.33
2018-10-16T17:15:20.456Z,101758.98
2018-10-16T17:17:49.648Z,101755.36
2018-10-16T17:20:18.646Z,101756.17
2018-10-16T17:22:47.920Z,101758.02
2018-10-16T17:25:17.354Z,101757.59
2018-10-16T17:27:46.269Z,101758.91
2018-10-16T17:30:16.707Z,101757.42
2018-10-16T17:32:46.310Z,101759.22
2018-10-16T17:35:15.717Z,101759.97
2018-10-16T17:37:44.837Z,101761.95
2018-10-16T17:40:15.348Z,101760.09
2018-10-16T17:42:44.629Z,101759.21
2018-10-16T17:45:15.142Z,101759.27
2018-10-16T17:47:44.465Z,101756.95
2018-10-16T17:50:15.812Z,101760.64
2018-10-16T17:52:44.886Z,101759.78
2018-10-16T17:55:14.640Z,101753.44
2018-10-16T17:57:43.818Z,101754.16
2018-10-16T18:00:15.586Z,101754.44
2018-10-16T18:02:45.102Z,101757.19
2018-10-16T18:05:14.736Z,101756.55
2018-10-16T18:07:44.992Z,101765.16
2018-10-16T18:10:14.175Z,101763.41
2018-10-16T18:12:43.246Z,101766.18
2018-10-16T18:15:13.485Z,101767.34
2018-10-16T18:17:43.134Z,101764.42
2018-10-16T18:20:14.004Z,101764.30
2018-10-16T18:22:43.427Z,101762.43
2018-10-16T18:25:12.741Z,101769.41
2018-10-16T18:27:42.609Z,101764.69
2018-10-16T18:30:12.868Z,101769.77
2018-10-16T18:32:42.264Z,101762.95
2018-10-16T18:35:11.676Z,101770.86
2018-10-16T18:37:41.991Z,101766.27
2018-10-16T18:40:12.034Z,101768.05
2018-10-16T18:42:41.566Z,101769.80
2018-10-16T18:45:12.172Z,101770.29
2018-10-16T18:47:41.249Z,101774.77
2018-10-16T18:50:12.078Z,101769.81
2018-10-16T18:52:41.301Z,101773.59
2018-10-16T18:55:12.025Z,101774.18
2018-10-16T18:57:41.218Z,101766.17
2018-10-16T19:00:12.640Z,101759.69
2018-10-16T19:02:42.308Z,101766.84
2018-10-16T19:05:11.427Z,101767.31
2018-10-16T19:07:41.113Z,101773.55
2018-10-16T19:10:10.200Z,101773.09
2018-10-16T19:12:40.103Z,101770.02
2018-10-16T19:15:10.875Z,101769.91
2018-10-16T19:17:40.161Z,101769.66
2018-10-16T19:20:11.437Z,101781.42
2018-10-16T19:22:40.892Z,101781.52
2018-10-16T19:25:10.833Z,101776.93
2018-10-16T19:27:40.042Z,101782.57
2018-10-16T19:30:10.327Z,101783.53
2018-10-16T19:32:39.453Z,101775.39
2018-10-16T19:35:09.511Z,101777.73
2018-10-16T19:37:38.733Z,101778.88
2018-10-16T19:40:07.805Z,101775.13
2018-10-16T19:42:36.937Z,101779.47
2018-10-16T19:45:06.720Z,101779.22
2018-10-16T19:47:35.765Z,101774.73
2018-10-16T19:50:05.149Z,101779.44
2018-10-16T19:52:34.235Z,101776.14
2018-10-16T19:55:03.339Z,101781.41
2018-10-16T19:57:32.423Z,101777.87
2018-10-16T20:00:01.597Z,101775.16
2018-10-16T20:02:31.663Z,101778.44
2018-10-16T20:05:00.761Z,101775.16
2018-10-16T20:07:29.988Z,101776.31
2018-10-16T20:09:59.131Z,101776.63
2018-10-16T20:12:28.251Z,101783.67
2018-10-16T20:14:57.319Z,101787.76
2018-10-16T20:17:26.375Z,101786.34
2018-10-16T20:19:56.026Z,101779.75
2018-10-16T20:22:25.145Z,101782.92
2018-10-16T20:24:54.254Z,101785.83
2018-10-16T20:27:23.251Z,101785.70
2018-10-16T20:29:52.321Z,101782.61
2018-10-16T20:32:21.377Z,101783.91
2018-10-16T20:34:50.432Z,101783.77
2018-10-16T20:37:19.490Z,101784.47
2018-10-16T20:39:48.549Z,101781.27
2018-10-16T20:42:17.614Z,101775.38
2018-10-16T20:44:46.778Z,101777.25
2018-10-16T20:47:15.935Z,101776.41
2018-10-16T20:49:45.138Z,101777.13
2018-10-16T20:52:14.317Z,101773.91
2018-10-16T20:54:43.337Z,101770.80
2018-10-16T20:57:12.402Z,101776.55
2018-10-16T20:59:42.510Z,101769.83
2018-10-16T21:02:11.685Z,101774.55
2018-10-16T21:04:40.779Z,101773.56
2018-10-16T21:07:09.879Z,101772.53
2018-10-16T21:09:38.847Z,101769.45
2018-10-16T21:12:07.912Z,101771.19
2018-10-16T21:14:36.997Z,101768.66
2018-10-16T21:17:06.038Z,101768.34
2018-10-16T21:19:35.144Z,101761.69
2018-10-16T21:22:04.162Z,101760.66
2018-10-16T21:24:34.494Z,101762.98
2018-10-16T21:27:06.450Z,101762.28
2018-10-16T21:29:36.489Z,101758.53
2018-10-16T21:32:06.190Z,101754.66
2018-10-16T21:34:36.247Z,101755.37
2018-10-16T21:37:05.432Z,101753.73
2018-10-16T21:39:34.438Z,101753.73
2018-10-16T21:42:03.487Z,101745.29
2018-10-16T21:44:32.561Z,101743.28
2018-10-16T21:47:01.636Z,101739.66
2018-10-16T21:49:30.663Z,101733.91
2018-10-16T21:51:59.701Z,101738.63
2018-10-16T21:54:28.737Z,101730.17
2018-10-16T21:56:59.223Z,101727.06
2018-10-16T21:59:28.346Z,101737.79
2018-10-16T22:02:02.464Z,101729.25
2018-10-16T22:04:31.519Z,101728.42
2018-10-16T22:07:01.908Z,101730.42
2018-10-16T22:09:30.917Z,101735.13
2018-10-16T22:11:59.974Z,101735.61
2018-10-16T22:14:29.016Z,101738.77
2018-10-16T22:16:58.082Z,101733.52
2018-10-16T22:19:27.067Z,101735.15
2018-10-16T22:21:56.133Z,101734.23
2018-10-16T22:24:25.242Z,101732.38
2018-10-16T22:26:54.266Z,101728.37
2018-10-16T22:29:23.362Z,101728.23
2018-10-16T22:31:52.369Z,101726.88
2018-10-16T22:34:21.414Z,101727.78
2018-10-16T22:36:50.447Z,101729.08
2018-10-16T22:39:20.408Z,101732.50
2018-10-16T22:41:49.458Z,101724.04
2018-10-16T22:44:18.552Z,101733.78
2018-10-16T22:46:47.659Z,101733.52
2018-10-16T22:49:16.748Z,101737.08
2018-10-16T22:51:45.825Z,101732.63
2018-10-16T22:54:14.985Z,101735.88
2018-10-16T22:56:44.114Z,101740.95
2018-10-16T22:59:13.215Z,101738.23
2018-10-16T23:01:43.245Z,101737.48
2018-10-16T23:04:12.303Z,101745.28
2018-10-16T23:06:41.400Z,101741.41
2018-10-16T23:09:10.523Z,101739.42
2018-10-16T23:11:40.506Z,101734.95
2018-10-16T23:14:09.599Z,101729.41
2018-10-16T23:16:38.650Z,101733.06
2018-10-16T23:19:07.772Z,101731.91
2018-10-16T23:21:36.885Z,101731.14
2018-10-16T23:24:05.960Z,101738.78
2018-10-16T23:26:35.033Z,101734.70
2018-10-16T23:29:04.162Z,101728.43
2018-10-16T23:31:33.241Z,101730.44
2018-10-16T23:34:02.309Z,101727.45
2018-10-16T23:36:48.177Z,101725.90
2018-10-16T23:39:23.629Z,101718.13
2018-10-16T23:41:53.641Z,101711.87
2018-10-16T23:44:22.757Z,101713.53
2018-10-16T23:46:51.845Z,101713.88
2018-10-16T23:49:20.890Z,101714.50
2018-10-16T23:51:49.956Z,101718.24
2018-10-16T23:54:19.044Z,101715.66
2018-10-16T23:56:48.125Z,101711.27
2018-10-16T23:59:17.220Z,101714.87
